Time;durP1;ratioP1;P1;durP2;ratioP2;P2;SDS_P1;SDS_P2;PMS_P1;PMS_P2;Temp;Humidity;BMP_temperature;BMP_pressure;BME280_temperature;BME280_humidity;BME280_pressure;Samples;Min_cycle;Max_cycle;Signal;HPM_P1;HPM_P2
2024/01/01 00:00:39;;;;;;;6.85;3.88;;;9.20;99.90;;;;;;5033460;28;20258;-56
2024/01/01 00:03:05;;;;;;;7.90;3.10;;;9.10;99.90;;;;;;5033363;28;20183;-59
2024/01/01 00:05:30;;;;;;;9.25;3.30;;;9.20;99.90;;;;;;5033279;28;20238;-58
2024/01/01 00:07:57;;;;;;;17.90;3.60;;;9.20;99.90;;;;;;5033354;28;20215;-54
2024/01/01 00:10:22;;;;;;;7.35;2.47;;;9.20;99.90;;;;;;5033365;28;20527;-53
2024/01/01 00:12:48;;;;;;;7.45;3.50;;;9.20;99.90;;;;;;5033389;28;20242;-53
2024/01/01 00:15:13;;;;;;;8.18;2.92;;;9.20;99.90;;;;;;5033764;28;20191;-56
2024/01/01 00:17:40;;;;;;;7.30;2.15;;;9.20;99.90;;;;;;5033197;28;20631;-53
2024/01/01 00:20:06;;;;;;;5.38;2.65;;;9.20;99.90;;;;;;5033061;28;20168;-53
2024/01/01 00:22:32;;;;;;;8.98;2.30;;;9.20;99.90;;;;;;5033072;28;20168;-53
2024/01/01 00:24:58;;;;;;;6.93;1.90;;;9.20;99.90;;;;;;5033033;28;20164;-53
2024/01/01 00:27:24;;;;;;;8.65;1.92;;;9.10;99.90;;;;;;5032961;28;20252;-52
2024/01/01 00:29:50;;;;;;;8.27;1.70;;;9.10;99.90;;;;;;5032757;28;20534;-60
2024/01/01 00:32:16;;;;;;;8.70;1.88;;;9.10;99.90;;;;;;5033332;28;20225;-53
2024/01/01 00:34:42;;;;;;;8.88;2.35;;;9.10;99.90;;;;;;5033091;28;20511;-53
2024/01/01 00:37:07;;;;;;;6.63;1.80;;;9.10;99.90;;;;;;5037260;28;20257;-55
2024/01/01 00:39:33;;;;;;;10.43;3.05;;;9.10;99.90;;;;;;5052063;28;20221;-62
2024/01/01 00:41:59;;;;;;;8.05;2.15;;;9.10;99.90;;;;;;5052524;28;20167;-57
2024/01/01 00:44:26;;;;;;;6.50;2.05;;;9.10;99.90;;;;;;5052566;28;20642;-55
2024/01/01 00:46:52;;;;;;;8.75;2.28;;;9.10;99.90;;;;;;5052391;28;20229;-53
2024/01/01 00:49:17;;;;;;;5.35;1.60;;;9.10;99.90;;;;;;5051683;28;20618;-53
2024/01/01 00:51:43;;;;;;;4.03;1.52;;;9.10;99.90;;;;;;5052557;28;20167;-53
2024/01/01 00:54:10;;;;;;;3.92;1.73;;;9.10;99.90;;;;;;5052154;28;20249;-57
2024/01/01 00:56:36;;;;;;;7.35;2.00;;;9.20;99.90;;;;;;5052266;28;20173;-56
2024/01/01 00:59:01;;;;;;;3.00;1.35;;;9.10;99.90;;;;;;5052576;28;20166;-52
2024/01/01 01:01:27;;;;;;;6.38;2.08;;;9.10;99.90;;;;;;5052204;28;20174;-63
2024/01/01 01:03:52;;;;;;;4.85;1.80;;;9.10;99.90;;;;;;5052307;28;20250;-53
2024/01/01 01:06:20;;;;;;;3.60;1.65;;;9.10;99.90;;;;;;5052266;28;20194;-53
2024/01/01 01:08:45;;;;;;;6.07;1.83;;;9.10;99.90;;;;;;5033916;28;20202;-61
2024/01/01 01:11:11;;;;;;;4.47;1.20;;;9.10;99.90;;;;;;5032159;28;20172;-54
2024/01/01 01:13:36;;;;;;;11.45;2.58;;;9.10;99.90;;;;;;5032059;28;20258;-56
2024/01/01 01:16:02;;;;;;;6.53;1.85;;;9.10;99.90;;;;;;5032015;28;20221;-53
2024/01/01 01:18:28;;;;;;;6.15;1.60;;;9.10;99.90;;;;;;5032221;28;20179;-53
2024/01/01 01:20:53;;;;;;;3.75;1.05;;;9.10;99.90;;;;;;5031924;28;20620;-53
2024/01/01 01:23:19;;;;;;;4.65;1.75;;;9.10;99.90;;;;;;5031312;28;20163;-54
2024/01/01 01:25:45;;;;;;;5.18;1.73;;;9.10;99.90;;;;;;5031957;28;20254;-50
2024/01/01 01:28:10;;;;;;;12.27;2.42;;;9.10;99.90;;;;;;5031958;28;20182;-53
2024/01/01 01:30:36;;;;;;;4.22;1.65;;;9.10;99.90;;;;;;5031696;28;20163;-53
2024/01/01 01:33:02;;;;;;;8.88;1.48;;;9.10;99.90;;;;;;5031776;28;20646;-55
2024/01/01 01:35:27;;;;;;;10.95;1.85;;;9.20;99.90;;;;;;5031839;28;20159;-53
2024/01/01 01:37:53;;;;;;;8.68;2.53;;;9.20;99.90;;;;;;5042649;28;20170;-53
2024/01/01 01:40:18;;;;;;;11.40;2.72;;;9.20;99.90;;;;;;5050905;28;20166;-56
2024/01/01 01:42:46;;;;;;;9.48;2.40;;;9.10;99.90;;;;;;5052337;28;20571;-53
2024/01/01 01:45:12;;;;;;;12.38;2.20;;;9.10;99.90;;;;;;5051424;28;20174;-53
2024/01/01 01:47:37;;;;;;;4.30;1.63;;;9.10;99.90;;;;;;5051392;28;20688;-53
2024/01/01 01:50:06;;;;;;;6.90;2.13;;;9.10;99.90;;;;;;5051374;28;20185;-53
2024/01/01 01:52:32;;;;;;;13.45;2.83;;;9.20;99.90;;;;;;5051397;28;20536;-53
2024/01/01 01:54:58;;;;;;;11.65;2.00;;;9.20;99.90;;;;;;5051238;28;20207;-53
2024/01/01 01:57:24;;;;;;;8.82;1.90;;;9.10;99.90;;;;;;5051302;28;20178;-52
2024/01/01 01:59:50;;;;;;;5.00;2.92;;;9.10;99.90;;;;;;5051389;28;20611;-53
2024/01/01 02:02:17;;;;;;;6.78;1.92;;;9.10;99.90;;;;;;5051717;28;20221;-53
2024/01/01 02:04:42;;;;;;;4.35;1.60;;;9.00;99.90;;;;;;5049918;28;20634;-53
2024/01/01 02:07:08;;;;;;;8.07;2.30;;;8.80;99.90;;;;;;5046394;28;20245;-56
2024/01/01 02:09:34;;;;;;;8.40;2.20;;;8.80;99.90;;;;;;5031253;28;20167;-58
2024/01/01 02:11:59;;;;;;;3.90;1.10;;;8.70;99.90;;;;;;5031273;28;20237;-53
2024/01/01 02:14:25;;;;;;;9.68;1.45;;;8.50;99.90;;;;;;5031188;28;20176;-55
2024/01/01 02:16:51;;;;;;;3.72;1.50;;;8.40;99.90;;;;;;5031170;28;20163;-54
2024/01/01 02:19:20;;;;;;;11.05;2.28;;;8.30;99.90;;;;;;5031824;28;20167;-54
2024/01/01 02:21:48;;;;;;;9.35;1.70;;;8.30;99.90;;;;;;5032938;28;20197;-59
2024/01/01 02:24:15;;;;;;;10.68;2.65;;;8.20;99.90;;;;;;5031533;28;20164;-57
2024/01/01 02:26:42;;;;;;;5.35;1.45;;;8.20;99.90;;;;;;5031262;28;20250;-54
2024/01/01 02:29:07;;;;;;;10.45;2.60;;;8.10;99.90;;;;;;5031320;28;20164;-55
2024/01/01 02:31:33;;;;;;;10.55;1.67;;;8.10;99.90;;;;;;5031077;28;20163;-58
2024/01/01 02:33:58;;;;;;;8.73;1.77;;;8.00;99.90;;;;;;5031087;28;20175;-57
2024/01/01 02:36:24;;;;;;;8.75;2.05;;;8.10;99.90;;;;;;5031041;28;20172;-56
2024/01/01 02:38:50;;;;;;;11.05;2.13;;;8.10;99.90;;;;;;5047520;28;20270;-54
2024/01/01 02:41:15;;;;;;;7.35;2.22;;;8.10;99.90;;;;;;5051357;28;20159;-57
2024/01/01 02:43:41;;;;;;;9.73;2.67;;;8.00;99.90;;;;;;5050864;28;20177;-53
2024/01/01 02:46:06;;;;;;;8.50;2.60;;;8.10;99.90;;;;;;5050675;28;20187;-51
2024/01/01 02:48:32;;;;;;;12.30;2.15;;;8.10;99.90;;;;;;5050788;28;20692;-53
2024/01/01 02:50:57;;;;;;;7.90;2.00;;;8.10;99.90;;;;;;5050792;28;20688;-53
2024/01/01 02:53:23;;;;;;;12.80;2.03;;;8.10;99.90;;;;;;5054418;28;20626;-53
2024/01/01 02:55:48;;;;;;;8.50;2.20;;;8.10;99.90;;;;;;5054511;28;20264;-54
2024/01/01 02:58:14;;;;;;;6.90;2.00;;;8.10;99.90;;;;;;5055469;28;20259;-53
2024/01/01 03:00:41;;;;;;;8.07;1.85;;;8.10;99.90;;;;;;5054722;28;20634;-53
2024/01/01 03:03:06;;;;;;;9.32;2.22;;;8.10;99.90;;;;;;5054652;28;20167;-52
2024/01/01 03:05:32;;;;;;;7.72;1.98;;;8.10;99.90;;;;;;5054467;28;20585;-52
2024/01/01 03:07:57;;;;;;;7.97;2.13;;;8.20;99.90;;;;;;5043095;28;20207;-52
2024/01/01 03:10:23;;;;;;;9.65;2.22;;;8.20;99.90;;;;;;5034069;28;20168;-52
2024/01/01 03:12:49;;;;;;;10.93;2.45;;;8.20;99.90;;;;;;5034161;28;20281;-55
2024/01/01 03:15:14;;;;;;;10.20;1.45;;;8.30;99.90;;;;;;5034655;28;20297;-52
2024/01/01 03:17:41;;;;;;;9.90;2.55;;;8.20;99.90;;;;;;5034355;28;20195;-52
2024/01/01 03:20:07;;;;;;;7.30;1.90;;;8.20;99.90;;;;;;5034158;28;20642;-51
2024/01/01 03:22:32;;;;;;;7.10;1.83;;;8.20;99.90;;;;;;5039588;28;20181;-50
2024/01/01 03:24:58;;;;;;;11.95;2.75;;;8.20;99.90;;;;;;5054123;28;20572;-53
2024/01/01 03:27:23;;;;;;;4.78;1.60;;;8.20;99.90;;;;;;5053977;28;20317;-53
2024/01/01 03:29:49;;;;;;;4.53;1.92;;;8.30;99.90;;;;;;5054000;28;20205;-52
2024/01/01 03:32:15;;;;;;;6.90;1.85;;;8.30;99.90;;;;;;5054537;28;20182;-51
2024/01/01 03:34:42;;;;;;;13.07;2.15;;;8.30;99.90;;;;;;5053914;28;20163;-52
2024/01/01 03:37:07;;;;;;;10.90;1.77;;;8.30;99.90;;;;;;5053297;28;21324;-53
2024/01/01 03:39:33;;;;;;;8.82;1.92;;;8.40;99.90;;;;;;5053544;28;20642;-58
2024/01/01 03:41:58;;;;;;;10.48;2.67;;;8.30;99.90;;;;;;5053761;28;20175;-62
2024/01/01 03:44:24;;;;;;;8.85;1.80;;;8.40;99.90;;;;;;5053848;28;20174;-53
2024/01/01 03:46:49;;;;;;;11.90;1.98;;;8.40;99.90;;;;;;5053552;28;20219;-53
2024/01/01 03:49:15;;;;;;;11.15;2.50;;;8.40;99.90;;;;;;5054168;28;20179;-52
2024/01/01 03:51:40;;;;;;;6.90;2.55;;;8.40;99.90;;;;;;5053662;28;20167;-53
2024/01/01 03:54:06;;;;;;;9.82;2.20;;;8.40;99.90;;;;;;5053423;28;20170;-53
2024/01/01 03:56:31;;;;;;;10.15;2.05;;;8.40;99.90;;;;;;5053514;28;20175;-53
2024/01/01 03:58:57;;;;;;;11.30;2.47;;;8.40;99.90;;;;;;5053704;28;20170;-53
2024/01/01 04:01:23;;;;;;;8.50;2.13;;;8.40;99.90;;;;;;5053500;28;20748;-53
2024/01/01 04:03:48;;;;;;;7.78;2.05;;;8.40;99.90;;;;;;5051702;28;20641;-53
2024/01/01 04:06:14;;;;;;;8.68;1.90;;;8.50;99.90;;;;;;5053791;28;20190;-51
2024/01/01 04:08:39;;;;;;;7.72;1.80;;;8.40;99.90;;;;;;5034849;28;20219;-53
2024/01/01 04:11:05;;;;;;;9.07;1.60;;;8.40;99.90;;;;;;5033110;28;20176;-53
2024/01/01 04:13:31;;;;;;;12.70;3.15;;;8.40;99.90;;;;;;5033294;28;20179;-54
2024/01/01 04:15:57;;;;;;;12.07;2.10;;;8.40;99.90;;;;;;5033241;28;20258;-64
2024/01/01 04:18:23;;;;;;;9.25;2.05;;;8.40;99.90;;;;;;5031921;28;20168;-54
2024/01/01 04:20:49;;;;;;;9.25;2.45;;;8.40;99.90;;;;;;5033172;28;20213;-53
2024/01/01 04:23:14;;;;;;;6.70;1.95;;;8.40;99.90;;;;;;5033808;28;20178;-52
2024/01/01 04:25:40;;;;;;;15.48;2.75;;;8.40;99.90;;;;;;5033043;28;20187;-53
2024/01/01 04:28:06;;;;;;;6.32;2.17;;;8.40;99.90;;;;;;5033203;28;20179;-53
2024/01/01 04:30:31;;;;;;;13.05;2.85;;;8.40;99.90;;;;;;5032862;28;20175;-56
2024/01/01 04:32:57;;;;;;;10.13;2.72;;;8.40;99.90;;;;;;5032980;28;20207;-53
2024/01/01 04:35:22;;;;;;;10.23;2.22;;;8.40;99.90;;;;;;5032909;28;20199;-50
2024/01/01 04:37:48;;;;;;;9.82;2.97;;;8.40;99.90;;;;;;5043311;28;20178;-54
2024/01/01 04:40:13;;;;;;;15.57;3.28;;;8.40;99.90;;;;;;5053165;28;20162;-53
2024/01/01 04:42:39;;;;;;;6.60;1.90;;;8.40;99.90;;;;;;5051313;28;20220;-56
2024/01/01 04:45:05;;;;;;;7.35;2.10;;;8.40;99.90;;;;;;5052582;28;20170;-56
2024/01/01 04:47:30;;;;;;;12.73;2.30;;;8.40;99.90;;;;;;5051559;28;20210;-57
2024/01/01 04:49:56;;;;;;;13.00;2.33;;;8.40;99.90;;;;;;5052429;28;20637;-54
2024/01/01 04:52:21;;;;;;;11.55;2.58;;;8.40;99.90;;;;;;5052456;28;20174;-54
2024/01/01 04:54:47;;;;;;;10.35;1.83;;;8.40;99.90;;;;;;5052475;28;20230;-55
2024/01/01 04:57:13;;;;;;;15.40;3.28;;;8.30;99.90;;;;;;5053024;28;20189;-52
2024/01/01 04:59:38;;;;;;;8.98;2.58;;;8.40;99.90;;;;;;5052496;28;20170;-53
2024/01/01 05:02:04;;;;;;;8.27;2.17;;;8.40;99.90;;;;;;5052263;28;20228;-55
2024/01/01 05:04:30;;;;;;;11.15;3.08;;;8.30;99.90;;;;;;5052168;28;20163;-52
2024/01/01 05:06:55;;;;;;;8.95;2.67;;;8.40;99.90;;;;;;5045816;28;20203;-52
2024/01/01 05:09:21;;;;;;;14.85;2.50;;;8.40;99.90;;;;;;5032085;28;20630;-52
2024/01/01 05:11:46;;;;;;;16.05;3.00;;;8.40;99.90;;;;;;5032743;28;20626;-50
2024/01/01 05:14:12;;;;;;;4.63;2.40;;;8.40;99.90;;;;;;5032141;28;20167;-54
2024/01/01 05:16:39;;;;;;;19.33;3.50;;;8.40;99.90;;;;;;5031299;28;20672;-53
2024/01/01 05:19:04;;;;;;;13.77;3.15;;;8.40;99.90;;;;;;5032010;28;20225;-53
2024/01/01 05:21:30;;;;;;;15.77;3.08;;;8.40;99.90;;;;;;5031975;28;20523;-52
2024/01/01 05:23:56;;;;;;;10.02;1.95;;;8.40;99.90;;;;;;5032202;28;20178;-53
2024/01/01 05:26:21;;;;;;;15.48;2.53;;;8.30;99.90;;;;;;5031879;28;20680;-53
2024/01/01 05:28:47;;;;;;;9.57;2.13;;;8.30;99.90;;;;;;5032362;28;20314;-53
2024/01/01 05:31:18;;;;;;;5.18;2.47;;;8.30;99.90;;;;;;5032577;28;20623;-52
2024/01/01 05:33:44;;;;;;;9.57;2.35;;;8.30;99.90;;;;;;5032504;28;20515;-52
2024/01/01 05:36:15;;;;;;;8.25;1.35;;;8.30;99.90;;;;;;5031736;28;20166;-51
2024/01/01 05:38:41;;;;;;;12.98;3.50;;;8.30;99.90;;;;;;5031725;28;20183;-53
2024/01/01 05:41:10;;;;;;;11.05;3.13;;;8.40;99.90;;;;;;5031651;28;20159;-53
2024/01/01 05:43:36;;;;;;;12.93;3.03;;;8.40;99.90;;;;;;5031924;28;20179;-53
2024/01/01 05:46:01;;;;;;;17.00;3.00;;;8.40;99.90;;;;;;5031491;28;20634;-52
2024/01/01 05:48:27;;;;;;;10.23;2.75;;;8.40;99.90;;;;;;5031544;28;20694;-53
2024/01/01 05:50:52;;;;;;;8.55;1.92;;;8.40;99.90;;;;;;5031549;28;20233;-55
2024/01/01 05:53:18;;;;;;;12.77;2.97;;;8.40;99.90;;;;;;5031532;28;20619;-71
2024/01/01 05:55:43;;;;;;;9.52;2.47;;;8.40;99.90;;;;;;5031945;28;20219;-60
2024/01/01 05:58:09;;;;;;;11.25;2.80;;;8.40;99.90;;;;;;5031546;28;20168;-64
2024/01/01 06:00:37;;;;;;;10.85;2.47;;;8.40;99.90;;;;;;5031376;28;20191;-67
2024/01/01 06:03:04;;;;;;;3.95;1.63;;;8.40;99.90;;;;;;5031503;28;20533;-53
2024/01/01 06:05:31;;;;;;;4.40;1.75;;;8.40;99.90;;;;;;5031543;28;20176;-54
2024/01/01 06:07:56;;;;;;;7.32;2.08;;;8.40;99.90;;;;;;5035046;28;20203;-53
2024/01/01 06:10:22;;;;;;;7.82;2.47;;;8.40;99.90;;;;;;5031083;28;20183;-53
2024/01/01 06:12:47;;;;;;;13.93;2.53;;;8.40;99.90;;;;;;5031383;28;20167;-53
2024/01/01 06:15:13;;;;;;;13.70;2.47;;;8.30;99.90;;;;;;5031652;28;20174;-54
2024/01/01 06:17:40;;;;;;;11.27;2.10;;;8.30;99.90;;;;;;5031416;28;20171;-53
2024/01/01 06:20:06;;;;;;;5.13;2.20;;;8.30;99.90;;;;;;5031386;28;20180;-53
2024/01/01 06:22:31;;;;;;;12.15;2.42;;;8.30;99.90;;;;;;5031316;28;20591;-53
2024/01/01 06:24:57;;;;;;;6.47;2.10;;;8.30;99.90;;;;;;5031350;28;20246;-52
2024/01/01 06:27:22;;;;;;;8.18;2.40;;;8.30;99.90;;;;;;5033080;28;20666;-52
2024/01/01 06:29:48;;;;;;;7.60;2.03;;;8.30;99.90;;;;;;5035258;28;20164;-53
2024/01/01 06:32:13;;;;;;;9.65;2.72;;;8.30;99.90;;;;;;5035568;28;20194;-54
2024/01/01 06:34:39;;;;;;;10.55;2.88;;;8.30;99.90;;;;;;5035378;28;20167;-53
2024/01/01 06:37:07;;;;;;;15.30;2.42;;;8.20;99.90;;;;;;5036386;28;20190;-62
2024/01/01 06:39:33;;;;;;;10.40;1.83;;;8.20;99.90;;;;;;5034883;28;20163;-52
2024/01/01 06:41:58;;;;;;;7.43;2.00;;;8.20;99.90;;;;;;5034857;28;20183;-57
2024/01/01 06:44:25;;;;;;;12.60;3.70;;;8.20;99.90;;;;;;5034816;28;20174;-60
2024/01/01 06:46:50;;;;;;;10.00;1.90;;;8.20;99.90;;;;;;5034299;28;20211;-53
2024/01/01 06:49:16;;;;;;;10.40;1.85;;;8.20;99.90;;;;;;5035197;28;20186;-62
2024/01/01 06:51:42;;;;;;;5.18;1.65;;;8.20;99.90;;;;;;5035191;28;20175;-56
2024/01/01 06:54:07;;;;;;;9.10;2.20;;;8.10;99.90;;;;;;5034591;28;20514;-66
2024/01/01 06:56:39;;;;;;;6.32;1.27;;;8.10;99.90;;;;;;5034475;28;20645;-54
2024/01/01 06:59:04;;;;;;;5.20;1.55;;;8.10;99.90;;;;;;5034347;28;20167;-65
2024/01/01 07:01:30;;;;;;;8.55;2.17;;;8.10;99.90;;;;;;5034547;28;20695;-61
2024/01/01 07:03:55;;;;;;;9.05;2.13;;;8.10;99.90;;;;;;5034607;28;20544;-68
2024/01/01 07:06:21;;;;;;;10.35;2.63;;;8.10;99.90;;;;;;5034467;28;20674;-64
2024/01/01 07:08:46;;;;;;;8.68;2.35;;;8.10;99.90;;;;;;5034855;28;20626;-56
2024/01/01 07:11:12;;;;;;;7.38;2.22;;;8.10;99.90;;;;;;5034474;28;20167;-58
2024/01/01 07:13:37;;;;;;;7.95;2.00;;;8.10;99.90;;;;;;5034290;28;20217;-54
2024/01/01 07:16:03;;;;;;;10.18;1.88;;;8.00;99.90;;;;;;5034299;28;20217;-53
2024/01/01 07:18:28;;;;;;;6.63;1.90;;;8.00;99.90;;;;;;5034245;28;20686;-53
2024/01/01 07:20:54;;;;;;;4.47;1.42;;;8.00;99.90;;;;;;5034257;28;20167;-53
2024/01/01 07:23:19;;;;;;;8.98;3.00;;;8.00;99.90;;;;;;5034049;28;20237;-56
2024/01/01 07:25:45;;;;;;;13.65;2.22;;;8.00;99.90;;;;;;5034270;28;20254;-51
2024/01/01 07:28:11;;;;;;;5.07;1.45;;;8.00;99.90;;;;;;5034019;28;20207;-52
2024/01/01 07:30:36;;;;;;;9.90;1.65;;;8.00;99.90;;;;;;5034271;28;20164;-52
2024/01/01 07:33:03;;;;;;;4.40;1.73;;;8.00;99.90;;;;;;5033958;28;20598;-52
2024/01/01 07:35:28;;;;;;;7.38;2.03;;;8.00;99.90;;;;;;5033963;28;20552;-52
2024/01/01 07:37:54;;;;;;;9.95;1.92;;;8.00;99.90;;;;;;5050498;28;20166;-53
2024/01/01 07:40:20;;;;;;;6.30;1.52;;;8.00;99.90;;;;;;5053609;28;20533;-53
2024/01/01 07:42:46;;;;;;;10.45;1.90;;;7.90;99.90;;;;;;5054019;28;20170;-52
2024/01/01 07:45:12;;;;;;;6.15;2.00;;;7.90;99.90;;;;;;5052407;28;20180;-52
2024/01/01 07:47:37;;;;;;;3.60;1.80;;;7.90;99.90;;;;;;5053220;28;20245;-52
2024/01/01 07:50:03;;;;;;;5.05;1.45;;;7.80;99.90;;;;;;5053645;28;20193;-52
2024/01/01 07:52:29;;;;;;;8.80;2.17;;;7.80;99.90;;;;;;5053422;28;20170;-53
2024/01/01 07:54:57;;;;;;;2.22;0.90;;;7.80;99.90;;;;;;5053193;28;20221;-52
2024/01/01 07:57:26;;;;;;;7.32;1.52;;;7.70;99.90;;;;;;5053753;28;20178;-53
2024/01/01 07:59:55;;;;;;;4.35;1.50;;;7.70;99.90;;;;;;5053479;28;20245;-53
2024/01/01 08:02:21;;;;;;;6.80;1.35;;;7.70;99.90;;;;;;5053578;28;20198;-52
2024/01/01 08:04:46;;;;;;;2.75;1.35;;;7.70;99.90;;;;;;5053899;28;20218;-53
2024/01/01 08:07:12;;;;;;;7.45;1.25;;;7.70;99.90;;;;;;5040488;28;20207;-52
2024/01/01 08:09:37;;;;;;;5.03;1.55;;;7.60;99.90;;;;;;5033249;28;20171;-51
2024/01/01 08:12:04;;;;;;;1.48;0.90;;;7.60;99.90;;;;;;5033136;28;20163;-52
2024/01/01 08:14:30;;;;;;;4.75;1.95;;;7.60;99.90;;;;;;5033275;28;20540;-66
2024/01/01 08:16:55;;;;;;;6.18;1.17;;;7.70;99.90;;;;;;5033141;28;20183;-50
2024/01/01 08:19:21;;;;;;;6.28;1.52;;;7.60;99.90;;;;;;5033112;28;20164;-51
2024/01/01 08:21:47;;;;;;;3.65;0.82;;;7.60;99.90;;;;;;5033413;28;20205;-52
2024/01/01 08:24:13;;;;;;;5.25;1.20;;;7.60;99.90;;;;;;5033583;28;20239;-52
2024/01/01 08:26:38;;;;;;;3.72;1.20;;;7.60;99.90;;;;;;5032380;28;20547;-52
2024/01/01 08:29:04;;;;;;;4.30;1.20;;;7.70;99.90;;;;;;5032959;28;20159;-53
2024/01/01 08:31:29;;;;;;;2.30;1.10;;;7.70;99.90;;;;;;5032898;28;20183;-54
2024/01/01 08:33:55;;;;;;;2.17;0.50;;;7.60;99.90;;;;;;5032864;28;20204;-51
2024/01/01 08:36:21;;;;;;;4.25;0.93;;;7.60;99.90;;;;;;5037555;28;20220;-52
2024/01/01 08:38:47;;;;;;;5.18;1.50;;;7.60;99.90;;;;;;5053049;28;20171;-52
2024/01/01 08:41:12;;;;;;;1.80;1.30;;;7.60;99.90;;;;;;5052776;28;20596;-51
2024/01/01 08:43:38;;;;;;;3.08;2.17;;;7.60;99.90;;;;;;5052083;28;20167;-53
2024/01/01 08:46:05;;;;;;;2.90;1.40;;;7.70;99.90;;;;;;5052455;28;20201;-51
2024/01/01 08:48:31;;;;;;;4.60;1.38;;;7.70;99.90;;;;;;5052474;28;20518;-54
2024/01/01 08:50:56;;;;;;;3.33;0.95;;;7.70;99.90;;;;;;5052235;28;20170;-53
2024/01/01 08:53:22;;;;;;;2.10;0.70;;;7.70;99.90;;;;;;5052110;28;20630;-55
2024/01/01 08:55:47;;;;;;;3.00;1.77;;;7.70;99.90;;;;;;5052316;28;20289;-53
2024/01/01 08:58:13;;;;;;;3.80;0.93;;;7.80;99.90;;;;;;5052427;28;20189;-54
2024/01/01 09:00:39;;;;;;;4.15;1.20;;;7.80;99.90;;;;;;5050435;28;20266;-53
2024/01/01 09:03:05;;;;;;;8.20;1.70;;;7.90;99.90;;;;;;5051157;28;20262;-55
2024/01/01 09:05:30;;;;;;;3.40;1.30;;;7.90;99.90;;;;;;5050798;28;20201;-53
2024/01/01 09:07:56;;;;;;;3.35;1.25;;;8.00;99.90;;;;;;5031068;28;20290;-53
2024/01/01 09:10:22;;;;;;;10.75;1.30;;;8.00;99.90;;;;;;5031061;28;20238;-55
2024/01/01 09:12:47;;;;;;;3.00;1.10;;;8.00;99.90;;;;;;5031077;28;20176;-56
2024/01/01 09:15:16;;;;;;;3.90;1.45;;;8.00;99.90;;;;;;5032154;28;20171;-59
2024/01/01 09:17:45;;;;;;;6.22;1.40;;;8.00;99.90;;;;;;5032562;28;20202;-62
2024/01/01 09:20:11;;;;;;;5.05;2.08;;;8.00;99.90;;;;;;5032228;28;20171;-57
2024/01/01 09:22:37;;;;;;;3.47;0.85;;;7.90;99.90;;;;;;5031885;28;20554;-53
2024/01/01 09:25:03;;;;;;;7.35;1.52;;;7.90;99.90;;;;;;5031856;28;20242;-53
2024/01/01 09:27:28;;;;;;;6.75;1.63;;;7.90;99.90;;;;;;5031994;28;20215;-52
2024/01/01 09:29:54;;;;;;;1.73;1.40;;;7.90;99.90;;;;;;5031918;28;20166;-56
2024/01/01 09:32:19;;;;;;;2.78;1.10;;;7.80;99.90;;;;;;5031782;28;20178;-56
2024/01/01 09:34:45;;;;;;;2.47;1.00;;;7.90;99.90;;;;;;5032114;28;20195;-53
2024/01/01 09:37:10;;;;;;;4.38;1.30;;;7.90;99.90;;;;;;5045155;28;20602;-53
2024/01/01 09:39:36;;;;;;;7.10;2.05;;;7.90;99.90;;;;;;5051153;28;20228;-52
2024/01/01 09:42:04;;;;;;;4.82;1.48;;;7.90;99.90;;;;;;5051805;28;20175;-52
2024/01/01 09:44:30;;;;;;;5.07;2.00;;;7.90;99.90;;;;;;5051518;28;20191;-53
2024/01/01 09:46:55;;;;;;;4.03;1.52;;;7.90;99.90;;;;;;5051480;28;20225;-56
2024/01/01 09:49:22;;;;;;;6.30;1.45;;;7.90;99.90;;;;;;5051674;28;20533;-60
2024/01/01 09:51:48;;;;;;;4.75;1.25;;;8.00;99.90;;;;;;5051608;28;20269;-59
2024/01/01 09:54:13;;;;;;;7.28;1.38;;;8.00;99.90;;;;;;5051720;28;20210;-54
2024/01/01 09:56:39;;;;;;;5.15;1.58;;;8.10;99.90;;;;;;5051325;28;20213;-55
2024/01/01 09:59:04;;;;;;;7.97;1.65;;;8.10;99.90;;;;;;5051254;28;20224;-58
2024/01/01 10:01:31;;;;;;;5.68;1.55;;;8.10;99.90;;;;;;5050620;28;20650;-60
2024/01/01 10:04:06;;;;;;;5.70;1.50;;;8.20;99.90;;;;;;5051218;28;20186;-54
2024/01/01 10:06:34;;;;;;;6.65;1.13;;;8.20;99.90;;;;;;5049241;28;20598;-56
2024/01/01 10:09:10;;;;;;;2.03;1.35;;;8.20;99.90;;;;;;5050809;28;20170;-54
2024/01/01 10:11:41;;;;;;;6.45;1.58;;;8.20;99.90;;;;;;5051044;28;20185;-54
2024/01/01 10:14:07;;;;;;;5.95;1.95;;;8.20;99.90;;;;;;5051348;28;20228;-60
2024/01/01 10:16:33;;;;;;;5.60;1.42;;;8.30;99.90;;;;;;5051197;28;20163;-61
2024/01/01 10:19:01;;;;;;;5.00;1.50;;;8.30;99.90;;;;;;5051217;28;20639;-55
2024/01/01 10:21:30;;;;;;;5.93;1.52;;;8.30;99.90;;;;;;5051318;28;20244;-53
2024/01/01 10:23:58;;;;;;;4.38;1.58;;;8.30;99.90;;;;;;5051275;28;20216;-53
2024/01/01 10:26:24;;;;;;;4.45;1.50;;;8.30;99.90;;;;;;5050894;28;20289;-56
2024/01/01 10:28:49;;;;;;;7.38;1.65;;;8.30;99.90;;;;;;5050857;28;20178;-55
2024/01/01 10:31:15;;;;;;;5.55;1.58;;;8.30;99.90;;;;;;5051640;28;20163;-56
2024/01/01 10:33:42;;;;;;;3.75;1.77;;;8.30;99.90;;;;;;5050886;28;20631;-60
2024/01/01 10:36:08;;;;;;;3.95;1.52;;;8.40;99.90;;;;;;5049912;28;20171;-62
2024/01/01 10:38:36;;;;;;;3.13;1.50;;;8.40;99.90;;;;;;5050875;28;20167;-59
2024/01/01 10:41:03;;;;;;;8.52;1.90;;;8.40;99.90;;;;;;5051084;28;20201;-58
2024/01/01 10:43:29;;;;;;;7.85;1.70;;;8.40;99.90;;;;;;5050819;28;20565;-54
2024/01/01 10:46:01;;;;;;;4.88;1.85;;;8.50;99.90;;;;;;5050856;28;20159;-56
2024/01/01 10:48:27;;;;;;;7.55;1.77;;;10.90;99.90;;;;;;5050815;28;20713;-56
2024/01/01 10:51:07;;;;;;;6.55;1.98;;;8.50;99.90;;;;;;5050805;28;20201;-61
2024/01/01 10:53:42;;;;;;;6.53;1.98;;;8.60;99.90;;;;;;5050737;28;20170;-56
2024/01/01 10:56:44;;;;;;;8.30;1.85;;;8.60;99.90;;;;;;5050465;28;20207;-55
2024/01/01 10:59:22;;;;;;;6.35;1.95;;;8.60;99.90;;;;;;5050640;28;20533;-53
2024/01/01 11:01:50;;;;;;;5.07;1.30;;;8.60;99.90;;;;;;5050821;28;20173;-53
2024/01/01 11:04:19;;;;;;;6.93;2.10;;;8.60;99.90;;;;;;5051365;28;20175;-56
2024/01/01 11:06:45;;;;;;;4.00;1.25;;;8.60;99.90;;;;;;5036148;28;20207;-58
2024/01/01 11:09:19;;;;;;;5.68;1.80;;;8.60;99.90;;;;;;5030675;28;20534;-59
2024/01/01 11:11:49;;;;;;;3.10;1.52;;;8.60;99.90;;;;;;5031154;28;20190;-54
2024/01/01 11:14:44;;;;;;;5.13;1.50;;;8.50;99.90;;;;;;5034380;28;20163;-58
2024/01/01 11:17:11;;;;;;;7.63;1.92;;;8.50;99.90;;;;;;5033270;28;20213;-59
2024/01/01 11:19:46;;;;;;;7.13;1.58;;;8.50;99.90;;;;;;5034572;28;20171;-56
2024/01/01 11:22:29;;;;;;;7.82;1.98;;;8.50;99.90;;;;;;5034698;28;20163;-56
2024/01/01 11:24:55;;;;;;;11.57;1.90;;;8.50;99.90;;;;;;5034410;28;20178;-54
2024/01/01 11:27:31;;;;;;;7.28;1.60;;;8.50;99.90;;;;;;5034050;28;20211;-56
2024/01/01 11:30:07;;;;;;;6.38;1.50;;;8.50;99.90;;;;;;5034324;28;20163;-56
2024/01/01 11:32:35;;;;;;;7.40;1.52;;;8.50;99.90;;;;;;5034015;28;20159;-54
2024/01/01 11:35:16;;;;;;;5.15;1.92;;;8.50;99.90;;;;;;5033920;28;20168;-55
2024/01/01 11:37:45;;;;;;;2.72;1.35;;;8.50;99.90;;;;;;5033937;28;20174;-60
2024/01/01 11:40:12;;;;;;;2.38;1.15;;;8.40;99.90;;;;;;5033886;28;20173;-56
2024/01/01 11:42:38;;;;;;;3.05;1.27;;;8.40;99.90;;;;;;5033821;28;20179;-56
2024/01/01 11:45:11;;;;;;;4.38;1.58;;;8.40;99.90;;;;;;5034067;28;20179;-54
2024/01/01 11:47:38;;;;;;;3.97;1.73;;;8.40;99.90;;;;;;5033760;28;20211;-58
2024/01/01 11:50:05;;;;;;;6.05;1.67;;;8.40;99.90;;;;;;5034082;28;20527;-55
2024/01/01 11:52:30;;;;;;;9.35;2.25;;;8.40;99.90;;;;;;5033542;28;20647;-59
2024/01/01 11:54:56;;;;;;;4.32;1.70;;;8.40;99.90;;;;;;5033429;28;20226;-58
2024/01/01 11:57:22;;;;;;;7.45;1.98;;;8.40;99.90;;;;;;5033824;28;20175;-54
2024/01/01 11:59:49;;;;;;;8.38;1.63;;;8.40;99.90;;;;;;5033529;28;20171;-56
2024/01/01 12:02:16;;;;;;;4.97;1.80;;;8.40;99.90;;;;;;5033918;28;20291;-55
2024/01/01 12:04:43;;;;;;;8.32;1.73;;;8.50;99.90;;;;;;5033769;28;20535;-57
2024/01/01 12:07:09;;;;;;;6.30;2.00;;;8.50;99.90;;;;;;5050629;28;20210;-54
2024/01/01 12:09:35;;;;;;;4.68;2.22;;;8.60;99.90;;;;;;5053257;28;20169;-54
2024/01/01 12:12:05;;;;;;;7.95;2.08;;;8.50;99.90;;;;;;5053167;28;20163;-56
2024/01/01 12:14:31;;;;;;;6.38;1.85;;;8.50;99.90;;;;;;5053460;28;20522;-59
2024/01/01 12:16:57;;;;;;;7.97;2.10;;;8.50;99.90;;;;;;5053113;28;20181;-58
2024/01/01 12:19:23;;;;;;;9.93;1.63;;;8.60;99.90;;;;;;5053392;28;20170;-57
2024/01/01 12:21:51;;;;;;;6.78;1.85;;;8.60;99.90;;;;;;5053293;28;20220;-58
2024/01/01 12:24:21;;;;;;;11.80;2.17;;;8.60;99.90;;;;;;5052605;28;20170;-58
2024/01/01 12:26:50;;;;;;;9.15;2.20;;;8.70;99.90;;;;;;5052917;28;20275;-56
2024/01/01 12:29:20;;;;;;;9.25;2.60;;;8.70;99.90;;;;;;5053423;28;20159;-57
2024/01/01 12:31:48;;;;;;;11.93;2.30;;;8.70;99.90;;;;;;5053399;28;20241;-55
2024/01/01 12:34:15;;;;;;;6.22;2.08;;;8.70;99.90;;;;;;5053307;28;20167;-54
2024/01/01 12:36:41;;;;;;;9.65;2.55;;;8.80;99.90;;;;;;5036379;28;20647;-54
2024/01/01 12:39:07;;;;;;;11.13;2.33;;;8.80;99.90;;;;;;5032741;28;20293;-57
2024/01/01 12:41:33;;;;;;;6.60;2.30;;;8.70;99.90;;;;;;5033022;28;20666;-58
2024/01/01 12:43:59;;;;;;;14.55;2.90;;;8.70;99.90;;;;;;5032220;28;20160;-56
2024/01/01 12:46:25;;;;;;;12.93;2.78;;;8.70;99.90;;;;;;5032818;28;20237;-54
2024/01/01 12:48:51;;;;;;;10.50;3.10;;;8.70;99.90;;;;;;5032557;28;20218;-57
2024/01/01 12:51:19;;;;;;;16.20;3.00;;;8.70;99.90;;;;;;5033297;28;20168;-59